createdAt,value
2022-12-20T00:01:52.024Z,26.27
2022-12-20T00:04:19.127Z,24.37
2022-12-20T00:06:45.655Z,23.50
2022-12-20T00:09:16.139Z,21.93
2022-12-20T00:11:44.072Z,25.53
2022-12-20T00:14:10.873Z,22.87
2022-12-20T00:16:41.315Z,23.40
2022-12-20T00:19:11.691Z,22.63
2022-12-20T00:21:41.276Z,25.00
2022-12-20T00:24:08.196Z,22.73
2022-12-20T00:26:37.317Z,25.50
2022-12-20T00:29:07.393Z,22.23
2022-12-20T00:31:34.664Z,22.87
2022-12-20T00:34:03.996Z,19.97
2022-12-20T00:36:31.960Z,20.83
2022-12-20T00:39:00.242Z,23.37
2022-12-20T00:41:29.107Z,17.13
2022-12-20T00:43:57.082Z,19.47
2022-12-20T00:46:25.053Z,21.23
2022-12-20T00:48:52.371Z,20.97
2022-12-20T00:51:22.113Z,21.30
2022-12-20T00:57:36.467Z,19.17
2022-12-20T01:00:04.413Z,21.77
2022-12-20T01:02:31.121Z,19.10
2022-12-20T01:04:59.284Z,21.03
2022-12-20T01:07:27.691Z,21.57
2022-12-20T01:09:55.062Z,18.40
2022-12-20T01:12:23.828Z,18.13
2022-12-20T01:14:50.820Z,20.40
2022-12-20T01:17:18.217Z,20.17
2022-12-20T01:19:45.895Z,20.57
2022-12-20T01:22:17.043Z,21.20
2022-12-20T01:24:43.875Z,20.73
2022-12-20T01:27:14.905Z,23.03
2022-12-20T01:29:41.472Z,22.87
2022-12-20T01:32:08.366Z,23.80
2022-12-20T01:34:38.509Z,19.90
2022-12-20T01:37:05.473Z,20.67
2022-12-20T01:39:32.037Z,19.03
2022-12-20T01:42:01.098Z,19.30
2022-12-20T01:44:58.007Z,20.27
2022-12-20T01:47:26.760Z,20.63
2022-12-20T01:50:00.171Z,20.50
2022-12-20T01:52:30.952Z,20.50
2022-12-20T01:55:03.639Z,18.47
2022-12-20T01:57:36.627Z,20.63
2022-12-20T02:00:04.840Z,22.03
2022-12-20T02:02:38.788Z,21.13
2022-12-20T02:05:07.690Z,19.43
2022-12-20T02:07:37.016Z,19.73
2022-12-20T02:10:05.822Z,19.43
2022-12-20T02:12:40.047Z,20.03
2022-12-20T02:15:28.977Z,19.87
2022-12-20T02:18:07.736Z,18.03
2022-12-20T02:20:56.128Z,17.33
2022-12-20T02:23:49.094Z,22.70
2022-12-20T02:26:44.940Z,17.37
2022-12-20T02:29:23.440Z,20.67
2022-12-20T02:32:00.499Z,18.40
2022-12-20T02:34:27.781Z,15.37
2022-12-20T02:36:54.640Z,17.43
2022-12-20T02:39:27.399Z,19.80
2022-12-20T02:41:56.652Z,18.30
2022-12-20T02:44:46.610Z,19.50
2022-12-20T02:47:17.859Z,17.00
2022-12-20T02:49:46.384Z,17.27
2022-12-20T02:52:15.701Z,19.07
2022-12-20T02:54:42.481Z,16.37
2022-12-20T02:57:21.998Z,19.30
2022-12-20T02:59:55.725Z,17.97
2022-12-20T03:02:23.917Z,17.03
2022-12-20T03:04:54.612Z,16.70
2022-12-20T03:07:21.576Z,17.20
2022-12-20T03:09:49.387Z,17.73
2022-12-20T03:12:16.857Z,17.70
2022-12-20T03:14:44.034Z,15.33
2022-12-20T03:17:11.347Z,17.83
2022-12-20T03:19:38.969Z,16.57
2022-12-20T03:22:05.727Z,16.40
2022-12-20T03:24:32.779Z,16.87
2022-12-20T03:26:59.637Z,15.60
2022-12-20T03:29:26.847Z,16.17
2022-12-20T03:31:53.440Z,18.03
2022-12-20T03:34:20.033Z,16.37
2022-12-20T03:36:47.294Z,15.87
2022-12-20T03:39:14.185Z,16.63
2022-12-20T03:41:40.884Z,14.17
2022-12-20T03:44:07.886Z,18.10
2022-12-20T03:46:38.067Z,16.77
2022-12-20T03:49:05.707Z,15.07
2022-12-20T03:51:32.603Z,15.83
2022-12-20T03:54:02.199Z,15.43
2022-12-20T03:56:28.795Z,14.77
2022-12-20T03:58:56.759Z,14.40
2022-12-20T04:01:26.742Z,16.73
2022-12-20T04:03:53.586Z,19.13
2022-12-20T04:06:22.055Z,16.60
2022-12-20T04:08:49.321Z,15.63
2022-12-20T04:11:17.892Z,16.43
2022-12-20T04:13:45.582Z,16.73
2022-12-20T04:16:12.529Z,16.27
2022-12-20T04:18:39.162Z,17.30
2022-12-20T04:21:06.773Z,17.17
2022-12-20T04:23:33.916Z,16.00
2022-12-20T04:26:00.844Z,15.33
2022-12-20T04:28:29.499Z,14.80
2022-12-20T04:30:58.135Z,17.70
2022-12-20T04:33:27.711Z,14.23
2022-12-20T04:35:54.840Z,17.27
2022-12-20T04:38:22.208Z,14.40
2022-12-20T04:40:49.531Z,16.70
2022-12-20T04:43:16.839Z,16.03
2022-12-20T04:45:44.269Z,14.63
2022-12-20T04:48:45.891Z,15.23
2022-12-20T04:50:57.687Z,18.57
2022-12-20T04:53:44.193Z,18.17
2022-12-20T04:56:11.225Z,17.73
2022-12-20T04:58:37.802Z,17.70
2022-12-20T05:01:05.288Z,16.77
2022-12-20T05:03:31.925Z,15.87
2022-12-20T05:05:58.844Z,18.00
2022-12-20T05:08:25.406Z,18.00
2022-12-20T05:10:51.958Z,21.50
2022-12-20T05:13:18.993Z,17.87
2022-12-20T05:15:45.679Z,15.37
2022-12-20T05:18:12.970Z,14.97
2022-12-20T05:20:40.007Z,15.50
2022-12-20T05:23:24.790Z,15.97
2022-12-20T05:26:11.897Z,15.57
2022-12-20T05:28:38.462Z,17.97
2022-12-20T05:31:05.347Z,16.13
2022-12-20T05:33:34.330Z,15.73
2022-12-20T05:36:01.091Z,18.47
2022-12-20T05:38:28.054Z,18.63
2022-12-20T05:40:54.726Z,19.23
2022-12-20T05:43:21.492Z,21.40
2022-12-20T05:45:48.872Z,13.83
2022-12-20T05:48:16.228Z,18.00
2022-12-20T05:50:44.312Z,16.10
2022-12-20T05:53:12.150Z,15.37
2022-12-20T05:55:41.858Z,16.73
2022-12-20T05:58:08.842Z,18.07
2022-12-20T06:00:36.639Z,17.23
2022-12-20T06:03:03.974Z,14.80
2022-12-20T06:05:31.433Z,16.40
2022-12-20T06:07:58.925Z,18.77
2022-12-20T06:10:25.948Z,17.77
2022-12-20T06:12:52.876Z,14.17
2022-12-20T06:15:20.083Z,15.17
2022-12-20T06:17:47.287Z,13.87
2022-12-20T06:20:14.064Z,16.93
2022-12-20T06:22:40.707Z,14.87
2022-12-20T06:25:08.966Z,15.83
2022-12-20T06:27:38.763Z,18.60
2022-12-20T06:30:11.403Z,19.57
2022-12-20T06:32:40.116Z,16.77
2022-12-20T06:35:07.790Z,17.37
2022-12-20T06:37:35.973Z,16.57
2022-12-20T06:40:09.080Z,18.20
2022-12-20T06:42:38.565Z,17.33
2022-12-20T06:45:07.332Z,17.07
2022-12-20T06:47:35.593Z,16.07
2022-12-20T06:50:06.141Z,16.17
2022-12-20T06:52:33.504Z,18.03
2022-12-20T06:55:00.561Z,15.77
2022-12-20T06:57:27.815Z,15.37
2022-12-20T07:00:02.084Z,18.90
2022-12-20T07:02:29.314Z,17.37
2022-12-20T07:05:00.958Z,19.07
2022-12-20T07:07:27.580Z,18.80
2022-12-20T07:09:54.275Z,16.63
2022-12-20T07:12:21.157Z,17.83
2022-12-20T07:14:48.628Z,19.30
2022-12-20T07:17:15.704Z,22.03
2022-12-20T07:22:30.166Z,18.63
2022-12-20T07:24:57.112Z,19.10
2022-12-20T07:27:24.096Z,20.67
2022-12-20T07:29:51.865Z,20.57
2022-12-20T07:32:18.532Z,19.03
2022-12-20T07:34:45.121Z,21.70
2022-12-20T07:37:12.009Z,23.13
2022-12-20T07:39:41.402Z,20.83
2022-12-20T07:42:08.638Z,20.97
2022-12-20T07:44:37.904Z,20.33
2022-12-20T07:47:05.818Z,19.80
2022-12-20T07:49:32.715Z,21.83
2022-12-20T07:52:07.139Z,21.60
2022-12-20T07:54:39.953Z,22.80
2022-12-20T07:57:13.981Z,26.17
2022-12-20T07:59:44.728Z,21.00
2022-12-20T08:02:17.954Z,19.90
2022-12-20T08:04:46.137Z,22.40
2022-12-20T08:07:12.798Z,22.40
2022-12-20T08:09:43.220Z,21.40
2022-12-20T08:12:12.626Z,21.63
2022-12-20T08:14:39.478Z,25.70
2022-12-20T08:17:06.436Z,26.10
2022-12-20T08:19:33.696Z,26.00
2022-12-20T08:22:00.841Z,23.80
2022-12-20T08:24:28.194Z,21.03
2022-12-20T08:26:57.169Z,23.00
2022-12-20T08:29:24.069Z,22.37
2022-12-20T08:31:51.592Z,22.63
2022-12-20T08:34:18.488Z,23.83
2022-12-20T08:36:45.835Z,23.67
2022-12-20T08:39:15.109Z,22.00
2022-12-20T08:41:42.302Z,23.80
2022-12-20T08:44:10.069Z,25.43
2022-12-20T08:46:37.765Z,27.27
2022-12-20T08:49:08.541Z,25.17
2022-12-20T08:51:36.630Z,24.40
2022-12-20T08:54:04.059Z,26.13
2022-12-20T08:56:30.958Z,25.27
2022-12-20T08:58:59.047Z,29.47
2022-12-20T09:01:26.494Z,26.97
2022-12-20T09:03:53.495Z,24.33
2022-12-20T09:06:22.348Z,27.73
2022-12-20T09:08:49.675Z,24.83
2022-12-20T09:11:23.801Z,23.37
2022-12-20T09:13:53.368Z,23.60
2022-12-20T09:16:21.409Z,26.43
2022-12-20T09:18:54.743Z,30.77
2022-12-20T09:21:23.511Z,24.93
2022-12-20T09:23:53.409Z,27.90
2022-12-20T09:26:22.578Z,24.83
2022-12-20T09:28:53.201Z,24.90
2022-12-20T09:31:21.871Z,22.93
2022-12-20T09:33:48.572Z,24.60
2022-12-20T09:36:17.183Z,24.33
2022-12-20T09:38:44.649Z,19.20
2022-12-20T09:41:25.834Z,20.40
2022-12-20T09:43:52.978Z,21.03
2022-12-20T09:46:20.069Z,20.40
2022-12-20T09:48:47.901Z,21.50
2022-12-20T09:51:28.656Z,18.63
2022-12-20T09:54:07.291Z,22.77
2022-12-20T09:56:37.136Z,20.23
2022-12-20T09:59:06.573Z,21.60
2022-12-20T10:01:39.575Z,20.37
2022-12-20T10:04:18.010Z,17.87
2022-12-20T10:06:53.070Z,19.33
2022-12-20T10:09:40.039Z,17.80
2022-12-20T10:12:21.162Z,20.20
2022-12-20T10:15:04.143Z,19.43
2022-12-20T10:17:46.538Z,18.20
2022-12-20T10:20:33.939Z,18.67
2022-12-20T10:23:07.261Z,18.90
2022-12-20T10:25:35.862Z,16.57
2022-12-20T10:28:10.687Z,19.60
2022-12-20T10:30:37.821Z,16.30
2022-12-20T10:33:04.931Z,17.87
2022-12-20T10:35:37.165Z,17.23
2022-12-20T10:38:11.616Z,17.40
2022-12-20T10:43:38.736Z,16.30
2022-12-20T10:46:09.484Z,15.53
2022-12-20T10:48:38.670Z,17.00
2022-12-20T10:51:16.468Z,17.67
2022-12-20T10:53:52.357Z,19.87
2022-12-20T10:56:25.457Z,18.97
2022-12-20T10:58:58.508Z,17.27
2022-12-20T11:01:28.912Z,15.50
2022-12-20T11:03:59.339Z,17.17
2022-12-20T11:06:39.145Z,13.87
2022-12-20T11:09:31.340Z,15.90
2022-12-20T11:11:59.901Z,14.57
2022-12-20T11:14:31.399Z,14.27
2022-12-20T11:17:07.097Z,16.03
2022-12-20T11:19:56.120Z,18.93
2022-12-20T11:22:33.849Z,15.87
2022-12-20T11:25:17.641Z,14.73
2022-12-20T11:27:55.424Z,15.23
2022-12-20T11:30:24.631Z,13.73
2022-12-20T11:33:13.785Z,17.37
2022-12-20T11:35:52.240Z,13.97
2022-12-20T11:38:31.530Z,16.67
2022-12-20T11:41:10.879Z,13.67
2022-12-20T11:44:25.236Z,14.80
2022-12-20T11:47:00.974Z,15.77
2022-12-20T11:49:40.451Z,13.57
2022-12-20T11:52:18.274Z,12.17
2022-12-20T11:54:50.009Z,13.50
2022-12-20T11:57:22.117Z,13.67
2022-12-20T11:59:54.128Z,14.53
2022-12-20T12:02:27.940Z,15.43
2022-12-20T12:04:59.099Z,15.07
2022-12-20T12:07:29.679Z,11.80
2022-12-20T12:10:01.747Z,16.40
2022-12-20T12:12:32.472Z,13.40
2022-12-20T12:15:02.785Z,14.00
2022-12-20T12:17:37.140Z,16.17
2022-12-20T12:20:21.800Z,14.43
2022-12-20T12:22:53.357Z,13.37
2022-12-20T12:25:19.981Z,12.77
2022-12-20T12:27:46.624Z,14.30
2022-12-20T12:30:14.791Z,15.47
2022-12-20T12:32:51.883Z,13.60
2022-12-20T12:35:51.517Z,15.77
2022-12-20T12:38:49.324Z,13.40
2022-12-20T12:41:42.588Z,15.23
2022-12-20T12:44:31.995Z,13.60
2022-12-20T12:47:01.825Z,15.50
2022-12-20T12:49:31.293Z,15.97
2022-12-20T12:52:00.703Z,15.53
2022-12-20T12:54:29.928Z,16.57
2022-12-20T12:57:02.557Z,14.10
2022-12-20T12:59:51.110Z,13.33
2022-12-20T13:02:35.051Z,13.83
2022-12-20T13:05:35.587Z,16.03
2022-12-20T13:08:02.556Z,12.73
2022-12-20T13:10:59.055Z,11.73
2022-12-20T13:13:25.904Z,13.90
2022-12-20T13:16:06.779Z,13.10
2022-12-20T13:18:33.615Z,14.47
2022-12-20T13:21:31.917Z,15.00
2022-12-20T13:24:32.268Z,11.43
2022-12-20T13:27:00.948Z,14.13
2022-12-20T13:29:33.965Z,13.13
2022-12-20T13:32:01.003Z,14.73
2022-12-20T13:34:55.084Z,16.07
2022-12-20T13:37:54.812Z,15.83
2022-12-20T13:40:34.801Z,13.33
2022-12-20T13:43:08.853Z,14.77
2022-12-20T13:45:38.517Z,16.20
2022-12-20T13:48:11.496Z,13.77
2022-12-20T13:50:40.207Z,11.53
2022-12-20T13:53:17.536Z,13.53
2022-12-20T13:55:44.519Z,17.43
2022-12-20T13:58:16.438Z,12.17
2022-12-20T14:00:44.274Z,14.00
2022-12-20T14:03:21.345Z,13.53
2022-12-20T14:05:48.640Z,14.10
2022-12-20T14:08:18.435Z,13.97
2022-12-20T14:10:46.516Z,16.33
2022-12-20T14:13:22.362Z,15.73
2022-12-20T14:15:50.145Z,14.83
2022-12-20T14:18:19.441Z,15.10
2022-12-20T14:20:49.468Z,12.60
2022-12-20T14:23:18.469Z,12.77
2022-12-20T14:25:48.968Z,16.60
2022-12-20T14:28:27.879Z,13.40
2022-12-20T14:30:55.698Z,19.10
2022-12-20T14:33:28.858Z,13.13
2022-12-20T14:35:55.805Z,13.90
2022-12-20T14:38:28.293Z,16.43
2022-12-20T14:40:55.249Z,13.43
2022-12-20T14:43:27.198Z,17.40
2022-12-20T14:46:18.126Z,16.47
2022-12-20T14:48:45.752Z,15.37
2022-12-20T14:51:19.534Z,15.43
2022-12-20T14:53:49.135Z,21.93
2022-12-20T14:56:19.415Z,15.03
2022-12-20T14:58:46.007Z,15.57
2022-12-20T15:01:21.181Z,15.63
2022-12-20T15:03:52.049Z,15.93
2022-12-20T15:06:33.895Z,16.93
2022-12-20T15:09:01.300Z,16.40
2022-12-20T15:11:28.294Z,17.47
2022-12-20T15:13:56.062Z,17.33
2022-12-20T15:16:24.228Z,15.10
2022-12-20T15:18:52.863Z,17.80
2022-12-20T15:21:27.524Z,16.83
2022-12-20T15:23:55.661Z,18.03
2022-12-20T15:26:25.358Z,16.33
2022-12-20T15:28:52.322Z,17.43
2022-12-20T15:31:21.059Z,17.50
2022-12-20T15:33:47.953Z,16.30
2022-12-20T15:36:17.793Z,16.70
2022-12-20T15:39:11.402Z,18.17
2022-12-20T15:41:33.262Z,17.63
2022-12-20T15:44:04.348Z,19.83
2022-12-20T15:46:31.586Z,16.67
2022-12-20T15:48:58.613Z,21.63
2022-12-20T15:51:30.060Z,19.40
2022-12-20T15:53:56.731Z,19.43
2022-12-20T15:56:25.253Z,22.77
2022-12-20T15:59:17.769Z,18.73
2022-12-20T16:01:49.359Z,23.77
2022-12-20T16:04:19.287Z,18.07
2022-12-20T16:06:47.894Z,20.60
2022-12-20T16:09:15.650Z,17.90
2022-12-20T16:11:44.224Z,20.97
2022-12-20T16:14:15.699Z,27.03
2022-12-20T16:16:42.520Z,24.47
2022-12-20T16:19:10.311Z,23.33
2022-12-20T16:21:43.022Z,22.27
2022-12-20T16:24:12.653Z,19.97
2022-12-20T16:26:39.466Z,19.17
2022-12-20T16:29:10.010Z,19.87
2022-12-20T16:31:39.583Z,24.77
2022-12-20T16:34:10.895Z,20.93
2022-12-20T16:36:37.857Z,19.80
2022-12-20T16:39:04.590Z,20.40
2022-12-20T16:41:33.080Z,21.77
2022-12-20T16:44:03.576Z,22.97
2022-12-20T16:46:34.373Z,22.47
2022-12-20T16:49:07.228Z,22.83
2022-12-20T16:51:38.266Z,22.33
2022-12-20T16:54:19.168Z,22.80
2022-12-20T16:56:51.351Z,19.77
2022-12-20T16:59:21.647Z,21.30
2022-12-20T17:01:51.355Z,23.80
2022-12-20T17:04:25.209Z,19.60
2022-12-20T17:06:54.324Z,25.17
2022-12-20T17:09:21.967Z,23.20
2022-12-20T17:11:50.440Z,26.80
2022-12-20T17:14:20.230Z,23.50
2022-12-20T17:16:48.525Z,25.80
2022-12-20T17:19:16.365Z,26.30
2022-12-20T17:24:35.638Z,26.10
2022-12-20T17:27:04.643Z,20.50
2022-12-20T17:29:31.303Z,27.27
2022-12-20T17:31:58.377Z,27.57
2022-12-20T17:34:28.139Z,26.70
2022-12-20T17:36:57.025Z,26.57
2022-12-20T17:39:27.086Z,27.97
2022-12-20T17:45:42.465Z,23.93
2022-12-20T17:48:11.681Z,25.30
2022-12-20T17:50:39.604Z,25.13
2022-12-20T17:53:10.235Z,29.13
2022-12-20T17:55:39.334Z,26.83
2022-12-20T17:58:06.011Z,26.23
2022-12-20T18:00:39.291Z,29.30
2022-12-20T18:03:20.052Z,27.53
2022-12-20T18:05:59.660Z,25.37
2022-12-20T18:08:32.477Z,30.97
2022-12-20T18:10:59.580Z,30.37
2022-12-20T18:13:31.691Z,26.70
2022-12-20T18:15:58.356Z,24.87
2022-12-20T18:18:29.216Z,23.87
2022-12-20T18:21:07.218Z,27.83
2022-12-20T18:23:35.949Z,30.90
2022-12-20T18:26:09.983Z,24.07
2022-12-20T18:28:36.837Z,22.70
2022-12-20T18:31:04.798Z,25.63
2022-12-20T18:33:31.780Z,25.53
2022-12-20T18:36:06.432Z,27.50
2022-12-20T18:38:45.253Z,25.03
2022-12-20T18:41:27.753Z,31.60
2022-12-20T18:43:58.930Z,28.57
2022-12-20T18:46:28.327Z,27.63
2022-12-20T18:48:56.640Z,30.13
2022-12-20T18:51:25.278Z,27.03
2022-12-20T18:53:55.614Z,24.83
2022-12-20T18:56:26.160Z,36.73
2022-12-20T18:58:55.635Z,33.53
2022-12-20T19:01:29.348Z,30.57
2022-12-20T19:03:57.219Z,25.00
2022-12-20T19:06:23.887Z,26.63
2022-12-20T19:08:53.617Z,25.87
2022-12-20T19:11:23.297Z,25.77
2022-12-20T19:13:50.874Z,23.67
2022-12-20T19:16:21.083Z,83.10
2022-12-20T19:18:48.035Z,22.30
2022-12-20T19:21:16.704Z,20.30
2022-12-20T19:23:50.365Z,20.60
2022-12-20T19:26:19.504Z,21.20
2022-12-20T19:28:47.369Z,22.60
2022-12-20T19:31:21.640Z,20.13
2022-12-20T19:33:49.337Z,20.43
2022-12-20T19:36:17.991Z,22.53
2022-12-20T19:38:45.456Z,20.40
2022-12-20T19:41:12.783Z,22.43
2022-12-20T19:43:41.392Z,25.13
2022-12-20T19:46:09.124Z,20.90
2022-12-20T19:48:36.110Z,21.73
2022-12-20T19:51:03.953Z,23.33
2022-12-20T19:53:30.957Z,21.70
2022-12-20T19:55:58.707Z,20.97
2022-12-20T19:58:25.415Z,23.23
2022-12-20T20:00:52.497Z,21.77
2022-12-20T20:03:21.854Z,24.93
2022-12-20T20:05:49.213Z,23.03
2022-12-20T20:08:16.229Z,23.33
2022-12-20T20:10:44.132Z,19.70
2022-12-20T20:13:10.978Z,19.43
2022-12-20T20:15:37.714Z,24.13
2022-12-20T20:18:06.504Z,26.17
2022-12-20T20:20:34.186Z,24.73
2022-12-20T20:23:01.133Z,22.93
2022-12-20T20:25:35.506Z,21.10
2022-12-20T20:28:03.031Z,23.60
2022-12-20T20:30:29.761Z,23.30
2022-12-20T20:32:56.914Z,23.07
2022-12-20T20:35:25.087Z,26.33
2022-12-20T20:37:52.932Z,27.37
2022-12-20T20:40:19.487Z,23.63
2022-12-20T20:42:49.579Z,23.83
2022-12-20T20:45:16.467Z,23.50
2022-12-20T20:47:44.357Z,22.90
2022-12-20T20:50:11.244Z,23.23
2022-12-20T20:52:37.788Z,24.23
2022-12-20T20:55:06.388Z,22.40
2022-12-20T20:57:33.305Z,24.00
2022-12-20T21:00:01.994Z,24.77
2022-12-20T21:02:28.793Z,22.47
2022-12-20T21:05:35.753Z,21.87
2022-12-20T21:07:41.993Z,22.57
2022-12-20T21:10:10.270Z,23.63
2022-12-20T21:12:37.108Z,26.63
2022-12-20T21:15:23.863Z,22.23
2022-12-20T21:28:21.376Z,25.17
2022-12-20T21:34:03.408Z,23.23
2022-12-20T21:36:30.235Z,24.60
2022-12-20T21:38:57.662Z,22.00
2022-12-20T21:41:26.185Z,24.47
2022-12-20T21:43:55.991Z,22.37
2022-12-20T21:46:22.735Z,23.97
2022-12-20T21:48:49.301Z,24.80
2022-12-20T21:51:17.750Z,23.37
2022-12-20T21:53:45.745Z,25.17
2022-12-20T21:56:12.688Z,23.73
2022-12-20T21:58:39.287Z,26.57
2022-12-20T22:01:07.441Z,25.63
2022-12-20T22:03:34.908Z,25.23
2022-12-20T22:06:01.833Z,20.63
2022-12-20T22:08:28.937Z,27.63
2022-12-20T22:10:59.637Z,23.60
2022-12-20T22:13:26.569Z,24.97
2022-12-20T22:15:53.658Z,25.13
2022-12-20T22:18:20.880Z,23.30
2022-12-20T22:20:48.339Z,24.57
2022-12-20T22:23:15.216Z,22.07
2022-12-20T22:25:42.257Z,23.13
2022-12-20T22:28:09.207Z,21.90
2022-12-20T22:30:36.195Z,30.53
2022-12-20T22:33:03.127Z,24.43
2022-12-20T22:35:30.416Z,20.50
2022-12-20T22:37:57.229Z,24.53
2022-12-20T22:40:24.167Z,24.03
2022-12-20T22:42:52.392Z,25.70
2022-12-20T22:45:19.257Z,23.20
2022-12-20T22:47:46.147Z,23.80
2022-12-20T22:50:13.083Z,25.90
2022-12-20T22:52:43.803Z,26.07
2022-12-20T22:55:11.203Z,24.87
2022-12-20T22:57:38.044Z,22.17
2022-12-20T23:00:12.130Z,23.07
2022-12-20T23:02:39.759Z,24.77
2022-12-20T23:05:06.916Z,26.83
2022-12-20T23:07:33.952Z,22.63
2022-12-20T23:10:01.169Z,25.80
2022-12-20T23:12:46.113Z,24.57
2022-12-20T23:15:31.266Z,24.27
2022-12-20T23:17:58.281Z,25.70
2022-12-20T23:20:43.463Z,26.37
2022-12-20T23:23:10.084Z,24.93
2022-12-20T23:25:37.280Z,26.07
2022-12-20T23:28:04.204Z,22.27
2022-12-20T23:30:30.895Z,24.23
2022-12-20T23:32:57.756Z,25.07
2022-12-20T23:35:26.148Z,23.23
2022-12-20T23:37:53.146Z,27.67
2022-12-20T23:40:20.134Z,24.70
2022-12-20T23:42:47.392Z,26.83
2022-12-20T23:45:14.276Z,21.93
2022-12-20T23:47:40.947Z,26.37
2022-12-20T23:50:08.431Z,25.67
2022-12-20T23:52:34.999Z,28.53
2022-12-20T23:55:01.942Z,24.80
2022-12-20T23:57:29.719Z,29.90
2022-12-20T23:59:57.027Z,25.57
